createdAt,value
2023-05-09T00:00:59.363Z,99.99
2023-05-09T00:01:58.883Z,99.99
2023-05-09T00:04:02.942Z,99.99
2023-05-09T00:05:02.895Z,99.99
2023-05-09T00:07:07.426Z,99.99
2023-05-09T00:08:06.975Z,99.99
2023-05-09T00:10:11.010Z,99.99
2023-05-09T00:11:11.117Z,99.99
2023-05-09T00:13:15.555Z,99.99
2023-05-09T00:14:15.051Z,99.99
2023-05-09T00:16:19.118Z,99.99
2023-05-09T00:17:19.089Z,99.99
2023-05-09T00:19:23.608Z,99.99
2023-05-09T00:20:23.118Z,99.99
2023-05-09T00:22:27.149Z,99.99
2023-05-09T00:23:27.144Z,99.99
2023-05-09T00:25:31.672Z,99.99
2023-05-09T00:26:31.308Z,99.99
2023-05-09T00:28:35.263Z,99.99
2023-05-09T00:29:35.239Z,99.99
2023-05-09T00:31:39.785Z,99.99
2023-05-09T00:32:39.326Z,99.99
2023-05-09T00:34:43.338Z,99.99
2023-05-09T00:35:43.337Z,99.99
2023-05-09T00:37:36.849Z,99.99
2023-05-09T00:38:36.294Z,99.99
2023-05-09T00:40:40.356Z,99.99
2023-05-09T00:41:40.428Z,99.99
2023-05-09T00:43:44.872Z,99.99
2023-05-09T00:44:44.367Z,99.99
2023-05-09T00:46:48.415Z,99.99
2023-05-09T00:47:48.444Z,99.99
2023-05-09T00:49:42.893Z,99.99
2023-05-09T00:50:41.549Z,99.99
2023-05-09T00:52:34.722Z,99.99
2023-05-09T00:53:34.696Z,99.99
2023-05-09T00:55:39.237Z,99.99
2023-05-09T00:56:38.743Z,99.99
2023-05-09T00:58:42.878Z,99.99
2023-05-09T00:59:42.798Z,99.99
2023-05-09T01:01:47.346Z,99.99
2023-05-09T01:02:46.911Z,99.99
2023-05-09T01:04:50.852Z,99.99
2023-05-09T01:05:50.848Z,99.99
2023-05-09T01:07:44.416Z,99.99
2023-05-09T01:08:43.811Z,99.99
2023-05-09T01:10:47.875Z,99.99
2023-05-09T01:11:47.847Z,99.99
2023-05-09T01:14:57.446Z,99.99
2023-05-09T01:15:56.903Z,99.99
2023-05-09T01:17:49.883Z,99.99
2023-05-09T01:18:49.816Z,99.99
2023-05-09T01:20:54.332Z,99.99
2023-05-09T01:21:53.880Z,99.99
2023-05-09T01:23:57.911Z,99.99
2023-05-09T01:24:57.886Z,99.99
2023-05-09T01:28:06.403Z,99.99
2023-05-09T01:29:05.910Z,99.99
2023-05-09T01:31:10.060Z,99.99
2023-05-09T01:32:09.950Z,99.99
2023-05-09T01:34:14.470Z,99.99
2023-05-09T01:35:14.333Z,99.99
2023-05-09T01:37:18.022Z,99.99
2023-05-09T01:38:18.014Z,99.99
2023-05-09T01:40:22.544Z,99.99
2023-05-09T01:41:22.069Z,99.99
2023-05-09T01:43:26.110Z,99.99
2023-05-09T01:44:26.088Z,99.99
2023-05-09T01:46:30.740Z,99.99
2023-05-09T01:47:30.130Z,99.99
2023-05-09T01:49:34.170Z,99.99
2023-05-09T01:50:34.216Z,99.99
2023-05-09T01:52:38.682Z,99.99
2023-05-09T01:53:38.205Z,99.99
2023-05-09T01:55:42.276Z,99.99
2023-05-09T01:56:42.235Z,99.99
2023-05-09T01:58:46.761Z,99.99
2023-05-09T01:59:46.273Z,99.99
2023-05-09T02:01:50.463Z,99.99
2023-05-09T02:02:50.372Z,99.99
2023-05-09T02:04:54.857Z,99.99
2023-05-09T02:05:54.355Z,99.99
2023-05-09T02:07:47.314Z,99.99
2023-05-09T02:08:47.301Z,99.99
2023-05-09T02:10:51.828Z,99.99
2023-05-09T02:11:51.349Z,99.99
2023-05-09T02:13:55.389Z,99.99
2023-05-09T02:14:55.369Z,99.99
2023-05-09T02:17:00.048Z,99.99
2023-05-09T02:17:59.531Z,99.99
2023-05-09T02:20:03.470Z,99.99
2023-05-09T02:21:03.481Z,99.99
2023-05-09T02:22:56.956Z,99.99
2023-05-09T02:23:56.622Z,99.99
2023-05-09T02:25:49.785Z,99.99
2023-05-09T02:26:49.760Z,99.99
2023-05-09T02:28:54.277Z,99.99
2023-05-09T02:29:53.794Z,99.99
2023-05-09T02:31:57.870Z,99.99
2023-05-09T02:32:57.941Z,99.99
2023-05-09T02:35:02.881Z,99.99
2023-05-09T02:36:02.357Z,99.99
2023-05-09T02:37:55.318Z,99.99
2023-05-09T02:38:55.310Z,99.99
2023-05-09T02:40:59.834Z,99.99
2023-05-09T02:41:59.345Z,99.99
2023-05-09T02:44:03.409Z,99.99
2023-05-09T02:45:03.398Z,99.99
2023-05-09T02:47:07.907Z,99.99
2023-05-09T02:48:09.020Z,99.99
2023-05-09T02:50:11.484Z,99.99
2023-05-09T02:51:11.454Z,99.99
2023-05-09T02:53:15.969Z,99.99
2023-05-09T02:54:15.492Z,99.99
2023-05-09T02:56:19.535Z,99.99
2023-05-09T02:57:19.523Z,99.99
2023-05-09T02:59:24.046Z,99.99
2023-05-09T03:00:23.555Z,99.99
2023-05-09T03:02:16.713Z,99.99
2023-05-09T03:03:16.872Z,99.99
2023-05-09T03:05:10.233Z,99.99
2023-05-09T03:06:09.853Z,99.99
2023-05-09T03:08:02.865Z,99.99
2023-05-09T03:09:02.809Z,99.99
2023-05-09T03:10:56.362Z,99.99
2023-05-09T03:11:55.968Z,99.99
2023-05-09T03:14:00.003Z,99.99
2023-05-09T03:14:59.979Z,99.99
2023-05-09T03:16:00.028Z,99.99
2023-05-09T03:17:00.036Z,99.99
2023-05-09T03:18:00.129Z,99.99
2023-05-09T03:19:00.178Z,99.99
2023-05-09T03:20:03.204Z,99.99
2023-05-09T03:21:00.135Z,99.99
2023-05-09T03:22:00.178Z,99.99
2023-05-09T03:23:00.175Z,99.99
2023-05-09T03:24:00.229Z,99.99
2023-05-09T03:25:00.228Z,99.99
2023-05-09T03:26:00.257Z,99.99
2023-05-09T03:27:00.293Z,99.99
2023-05-09T03:28:00.298Z,99.99
2023-05-09T03:29:00.342Z,99.99
2023-05-09T03:30:00.357Z,99.99
2023-05-09T03:31:00.399Z,99.99
2023-05-09T03:32:00.396Z,99.99
2023-05-09T03:33:00.456Z,99.99
2023-05-09T03:34:00.451Z,99.99
2023-05-09T03:35:00.569Z,99.99
2023-05-09T03:36:00.498Z,99.99
2023-05-09T03:37:00.515Z,99.99
2023-05-09T03:38:00.543Z,99.99
2023-05-09T03:39:00.570Z,99.99
2023-05-09T03:40:00.600Z,99.99
2023-05-09T03:41:00.629Z,99.99
2023-05-09T03:42:00.637Z,99.99
2023-05-09T03:43:00.660Z,99.99
2023-05-09T03:44:00.683Z,99.99
2023-05-09T03:45:00.711Z,99.99
2023-05-09T03:46:00.733Z,99.99
2023-05-09T03:47:00.809Z,99.99
2023-05-09T03:48:00.807Z,99.99
2023-05-09T03:49:00.806Z,99.99
2023-05-09T03:50:00.833Z,99.99
2023-05-09T03:51:00.963Z,99.99
2023-05-09T03:52:00.877Z,99.99
2023-05-09T03:53:00.908Z,99.99
2023-05-09T03:54:00.929Z,99.99
2023-05-09T03:55:00.946Z,99.99
2023-05-09T03:56:00.975Z,99.99
2023-05-09T03:57:01.005Z,99.99
2023-05-09T03:58:01.024Z,99.99
2023-05-09T03:59:01.050Z,99.99
2023-05-09T04:00:01.076Z,99.99
2023-05-09T04:01:01.105Z,99.99
2023-05-09T04:02:01.178Z,99.99
2023-05-09T04:03:01.239Z,99.99
2023-05-09T04:04:01.202Z,99.99
2023-05-09T04:05:01.192Z,99.99
2023-05-09T04:06:01.215Z,99.99
2023-05-09T04:07:01.350Z,99.99
2023-05-09T04:08:01.270Z,99.99
2023-05-09T04:09:01.297Z,99.99
2023-05-09T04:10:01.339Z,99.99
2023-05-09T04:11:01.338Z,99.99
2023-05-09T04:12:01.363Z,99.99
2023-05-09T04:13:01.446Z,99.99
2023-05-09T04:14:01.409Z,99.99
2023-05-09T04:15:01.464Z,99.99
2023-05-09T04:16:01.464Z,99.99
2023-05-09T04:17:01.635Z,99.99
2023-05-09T04:18:01.522Z,99.99
2023-05-09T04:19:01.535Z,99.19
2023-05-09T04:20:01.602Z,98.91
2023-05-09T04:21:01.590Z,97.95
2023-05-09T04:22:01.619Z,97.14
2023-05-09T04:23:01.733Z,95.98
2023-05-09T04:24:01.647Z,95.03
2023-05-09T04:25:01.679Z,94.79
2023-05-09T04:26:01.711Z,93.54
2023-05-09T04:27:01.730Z,93.44
2023-05-09T04:28:01.775Z,92.77
2023-05-09T04:29:01.788Z,91.09
2023-05-09T04:30:01.810Z,89.75
2023-05-09T04:31:01.909Z,89.37
2023-05-09T04:32:02.011Z,88.70
2023-05-09T04:33:01.900Z,88.60
2023-05-09T04:34:01.919Z,87.84
2023-05-09T04:35:01.930Z,87.55
2023-05-09T04:36:01.963Z,87.45
2023-05-09T04:37:02.009Z,87.55
2023-05-09T04:38:02.011Z,87.74
2023-05-09T04:39:02.158Z,88.51
2023-05-09T04:40:02.081Z,88.35
2023-05-09T04:41:02.097Z,87.74
2023-05-09T04:42:02.117Z,87.11
2023-05-09T04:43:02.146Z,87.21
2023-05-09T04:44:02.173Z,87.88
2023-05-09T04:45:02.202Z,87.40
2023-05-09T04:46:02.246Z,87.49
2023-05-09T04:47:02.249Z,87.64
2023-05-09T04:48:02.282Z,87.84
2023-05-09T04:49:02.298Z,87.64
2023-05-09T04:50:02.334Z,87.84
2023-05-09T04:51:02.354Z,88.31
2023-05-09T04:52:02.377Z,88.22
2023-05-09T04:53:02.409Z,88.79
2023-05-09T04:54:02.437Z,89.08
2023-05-09T04:55:02.555Z,88.45
2023-05-09T04:56:02.495Z,89.03
2023-05-09T04:57:13.625Z,88.74
2023-05-09T04:58:02.543Z,88.45
2023-05-09T04:59:02.565Z,88.55
2023-05-09T05:00:02.607Z,87.49
2023-05-09T05:01:02.620Z,87.59
2023-05-09T05:02:02.791Z,87.78
2023-05-09T05:03:02.690Z,87.01
2023-05-09T05:04:02.701Z,87.01
2023-05-09T05:05:11.619Z,87.11
2023-05-09T05:06:02.753Z,87.40
2023-05-09T05:07:02.779Z,88.65
2023-05-09T05:08:02.807Z,88.35
2023-05-09T05:09:02.838Z,88.55
2023-05-09T05:10:02.861Z,88.60
2023-05-09T05:11:02.978Z,88.79
2023-05-09T05:12:04.838Z,89.18
2023-05-09T05:13:02.969Z,89.75
2023-05-09T05:14:02.976Z,90.04
2023-05-09T05:15:02.993Z,90.23
2023-05-09T05:16:03.049Z,90.04
2023-05-09T05:17:03.054Z,90.42
2023-05-09T05:18:03.134Z,90.61
2023-05-09T05:19:03.097Z,90.14
2023-05-09T05:20:03.148Z,90.42
2023-05-09T05:21:03.161Z,90.37
2023-05-09T05:22:03.194Z,90.66
2023-05-09T05:23:03.211Z,90.47
2023-05-09T05:24:03.230Z,90.18
2023-05-09T05:25:03.258Z,90.18
2023-05-09T05:26:03.292Z,89.94
2023-05-09T05:27:03.415Z,89.26
2023-05-09T05:28:03.343Z,88.40
2023-05-09T05:29:03.371Z,88.11
2023-05-09T05:30:03.402Z,87.49
2023-05-09T05:31:03.425Z,87.77
2023-05-09T05:32:03.468Z,86.52
2023-05-09T05:33:03.590Z,86.62
2023-05-09T05:34:03.506Z,86.62
2023-05-09T05:35:03.549Z,87.01
2023-05-09T05:36:03.559Z,86.91
2023-05-09T05:37:03.586Z,87.58
2023-05-09T05:38:03.625Z,87.19
2023-05-09T05:39:03.648Z,87.29
2023-05-09T05:40:03.673Z,87.39
2023-05-09T05:41:03.700Z,87.10
2023-05-09T05:42:03.746Z,87.49
2023-05-09T05:43:03.854Z,87.49
2023-05-09T05:44:03.785Z,87.68
2023-05-09T05:45:03.818Z,87.92
2023-05-09T05:46:03.933Z,88.69
2023-05-09T05:47:03.867Z,89.17
2023-05-09T05:48:04.028Z,89.60
2023-05-09T05:49:03.919Z,90.08
2023-05-09T05:50:03.945Z,89.89
2023-05-09T05:51:03.991Z,89.40
2023-05-09T05:52:04.005Z,88.73
2023-05-09T05:53:04.028Z,89.83
2023-05-09T05:54:04.074Z,89.54
2023-05-09T05:55:04.086Z,88.97
2023-05-09T05:56:04.116Z,88.73
2023-05-09T05:57:04.141Z,87.19
2023-05-09T05:58:04.167Z,86.22
2023-05-09T05:59:04.296Z,85.71
2023-05-09T06:00:04.228Z,85.99
2023-05-09T06:01:04.261Z,87.05
2023-05-09T06:02:04.315Z,87.48
2023-05-09T06:03:04.355Z,87.48
2023-05-09T06:04:04.374Z,87.29
2023-05-09T06:05:04.364Z,86.52
2023-05-09T06:06:04.399Z,85.65
2023-05-09T06:07:04.431Z,85.94
2023-05-09T06:08:04.465Z,86.13
2023-05-09T06:09:04.497Z,86.13
2023-05-09T06:10:04.514Z,86.22
2023-05-09T06:11:04.540Z,85.75
2023-05-09T06:12:04.570Z,86.22
2023-05-09T06:13:04.621Z,85.65
2023-05-09T06:14:04.630Z,86.13
2023-05-09T06:15:04.757Z,86.57
2023-05-09T06:16:18.769Z,87.24
2023-05-09T06:17:04.771Z,87.67
2023-05-09T06:18:04.822Z,87.09
2023-05-09T06:19:04.782Z,86.65
2023-05-09T06:20:04.799Z,86.27
2023-05-09T06:21:04.832Z,86.12
2023-05-09T06:22:04.857Z,86.22
2023-05-09T06:23:04.882Z,85.78
2023-05-09T06:24:08.493Z,83.80
2023-05-09T06:25:05.040Z,81.96
2023-05-09T06:26:04.981Z,81.48
2023-05-09T06:27:05.028Z,80.43
2023-05-09T06:28:05.048Z,80.85
2023-05-09T06:29:05.074Z,80.27
2023-05-09T06:30:14.213Z,79.64
2023-05-09T06:31:05.168Z,79.68
2023-05-09T06:32:05.160Z,78.42
2023-05-09T06:33:05.209Z,78.03
2023-05-09T06:34:05.224Z,77.50
2023-05-09T06:35:05.257Z,77.30
2023-05-09T06:36:05.287Z,76.34
2023-05-09T06:37:05.316Z,76.24
2023-05-09T06:38:05.349Z,76.82
2023-05-09T06:39:05.384Z,76.24
2023-05-09T06:40:05.418Z,76.53
2023-05-09T06:41:05.449Z,76.43
2023-05-09T06:42:05.475Z,76.98
2023-05-09T06:43:05.513Z,76.30
2023-05-09T06:44:05.539Z,76.59
2023-05-09T06:45:05.605Z,77.07
2023-05-09T06:46:05.672Z,77.17
2023-05-09T06:47:05.755Z,77.55
2023-05-09T06:48:05.713Z,77.51
2023-05-09T06:49:05.702Z,77.71
2023-05-09T06:50:05.752Z,77.81
2023-05-09T06:51:05.766Z,79.06
2023-05-09T06:52:05.794Z,79.93
2023-05-09T06:53:05.839Z,79.83
2023-05-09T06:54:05.871Z,79.60
2023-05-09T06:55:05.893Z,80.41
2023-05-09T06:56:05.923Z,80.02
2023-05-09T06:57:05.953Z,79.44
2023-05-09T06:58:05.986Z,79.06
2023-05-09T06:59:06.023Z,79.21
2023-05-09T07:00:06.057Z,79.50
2023-05-09T07:01:06.094Z,80.94
2023-05-09T07:02:06.145Z,80.56
2023-05-09T07:03:06.234Z,80.51
2023-05-09T07:04:06.224Z,80.60
2023-05-09T07:05:06.263Z,80.89
2023-05-09T07:06:06.239Z,80.64
2023-05-09T07:07:06.299Z,79.77
2023-05-09T07:08:06.303Z,78.03
2023-05-09T07:09:06.347Z,78.91
2023-05-09T07:10:11.152Z,78.42
2023-05-09T07:11:06.399Z,77.46
2023-05-09T07:12:06.436Z,77.75
2023-05-09T07:13:06.499Z,78.52
2023-05-09T07:14:06.509Z,78.91
2023-05-09T07:15:06.526Z,79.68
2023-05-09T07:16:06.684Z,79.77
2023-05-09T07:17:21.811Z,79.16
2023-05-09T07:18:06.665Z,78.86
2023-05-09T07:19:06.773Z,79.44
2023-05-09T07:20:06.700Z,80.41
2023-05-09T07:21:06.717Z,80.99
2023-05-09T07:22:06.808Z,80.51
2023-05-09T07:23:06.779Z,81.18
2023-05-09T07:24:06.810Z,81.27
2023-05-09T07:25:06.842Z,81.02
2023-05-09T07:26:06.881Z,80.83
2023-05-09T07:27:06.916Z,79.68
2023-05-09T07:28:06.953Z,79.49
2023-05-09T07:29:06.969Z,79.19
2023-05-09T07:30:07.009Z,79.68
2023-05-09T07:31:07.027Z,80.54
2023-05-09T07:32:07.093Z,80.83
2023-05-09T07:33:07.143Z,80.74
2023-05-09T07:34:07.119Z,80.68
2023-05-09T07:35:07.252Z,80.97
2023-05-09T07:36:07.180Z,79.81
2023-05-09T07:37:07.212Z,79.56
2023-05-09T07:38:07.243Z,78.50
2023-05-09T07:39:07.276Z,77.83
2023-05-09T07:40:07.306Z,77.57
2023-05-09T07:41:07.335Z,77.67
2023-05-09T07:42:07.366Z,77.28
2023-05-09T07:43:07.396Z,77.03
2023-05-09T07:44:07.427Z,76.35
2023-05-09T07:45:07.460Z,75.78
2023-05-09T07:46:07.533Z,76.12
2023-05-09T07:47:07.521Z,76.35
2023-05-09T07:48:07.581Z,76.26
2023-05-09T07:49:07.586Z,76.93
2023-05-09T07:50:07.619Z,75.78
2023-05-09T07:51:07.751Z,75.20
2023-05-09T07:52:07.678Z,75.29
2023-05-09T07:53:07.718Z,75.78
2023-05-09T07:54:07.741Z,75.87
2023-05-09T07:55:07.773Z,76.16
2023-05-09T07:56:07.819Z,76.06
2023-05-09T07:57:07.856Z,74.90
2023-05-09T07:58:07.868Z,75.20
2023-05-09T07:59:07.915Z,75.20
2023-05-09T08:00:07.945Z,75.39
2023-05-09T08:01:07.977Z,75.58
2023-05-09T08:02:08.035Z,76.16
2023-05-09T08:03:08.315Z,76.22
2023-05-09T08:04:08.203Z,76.61
2023-05-09T08:05:08.114Z,76.42
2023-05-09T08:06:08.165Z,75.74
2023-05-09T08:07:08.263Z,76.61
2023-05-09T08:08:08.248Z,76.67
2023-05-09T08:09:08.222Z,76.37
2023-05-09T08:10:08.260Z,77.40
2023-05-09T08:11:08.282Z,77.63
2023-05-09T08:12:08.335Z,77.78
2023-05-09T08:13:08.421Z,78.46
2023-05-09T08:14:08.380Z,78.66
2023-05-09T08:15:08.428Z,78.66
2023-05-09T08:16:08.497Z,79.43
2023-05-09T08:17:08.479Z,79.19
2023-05-09T08:18:08.578Z,79.68
2023-05-09T08:19:08.545Z,79.68
2023-05-09T08:20:08.566Z,80.45
2023-05-09T08:21:08.597Z,81.09
2023-05-09T08:22:08.630Z,81.47
2023-05-09T08:23:08.768Z,81.90
2023-05-09T08:24:08.694Z,81.90
2023-05-09T08:25:08.748Z,81.70
2023-05-09T08:26:08.752Z,80.54
2023-05-09T08:27:08.794Z,80.93
2023-05-09T08:28:08.820Z,81.60
2023-05-09T08:29:08.847Z,80.79
2023-05-09T08:30:08.888Z,81.27
2023-05-09T08:31:08.926Z,81.09
2023-05-09T08:32:08.936Z,81.85
2023-05-09T08:33:09.004Z,81.27
2023-05-09T08:34:09.004Z,81.37
2023-05-09T08:35:09.078Z,81.66
2023-05-09T08:36:09.059Z,82.14
2023-05-09T08:37:09.095Z,82.14
2023-05-09T08:38:09.122Z,81.85
2023-05-09T08:39:09.240Z,82.62
2023-05-09T08:40:09.195Z,82.82
2023-05-09T08:41:09.233Z,83.07
2023-05-09T08:42:09.247Z,83.07
2023-05-09T08:43:09.277Z,83.07
2023-05-09T08:44:09.304Z,83.36
2023-05-09T08:45:09.345Z,83.94
2023-05-09T08:46:09.397Z,83.84
2023-05-09T08:47:09.395Z,84.22
2023-05-09T08:48:09.472Z,84.32
2023-05-09T08:49:09.458Z,84.07
2023-05-09T08:50:09.486Z,83.59
2023-05-09T08:51:09.517Z,83.50
2023-05-09T08:52:09.554Z,83.34
2023-05-09T08:53:09.575Z,83.44
2023-05-09T08:54:09.604Z,82.96
2023-05-09T08:55:09.734Z,82.18
2023-05-09T08:56:09.667Z,81.51
2023-05-09T08:57:09.691Z,81.70
2023-05-09T08:58:09.783Z,81.16
2023-05-09T08:59:09.798Z,80.78
2023-05-09T09:00:09.789Z,80.78
2023-05-09T09:01:09.887Z,79.81
2023-05-09T09:02:09.886Z,79.91
2023-05-09T09:03:09.920Z,79.47
2023-05-09T09:04:09.917Z,80.05
2023-05-09T09:05:19.638Z,79.75
2023-05-09T09:06:09.978Z,80.05
2023-05-09T09:07:10.007Z,78.73
2023-05-09T09:08:10.109Z,78.44
2023-05-09T09:09:10.072Z,77.96
2023-05-09T09:10:10.133Z,78.34
2023-05-09T09:11:10.246Z,77.09
2023-05-09T09:12:10.198Z,76.80
2023-05-09T09:13:10.230Z,76.80
2023-05-09T09:14:10.237Z,76.61
2023-05-09T09:15:10.267Z,76.80
2023-05-09T09:16:10.323Z,77.28
2023-05-09T09:17:10.330Z,77.92
2023-05-09T09:18:10.420Z,77.57
2023-05-09T09:19:10.391Z,77.92
2023-05-09T09:20:10.440Z,77.92
2023-05-09T09:21:10.449Z,78.50
2023-05-09T09:22:10.486Z,78.92
2023-05-09T09:23:10.522Z,79.12
2023-05-09T09:24:10.556Z,78.15
2023-05-09T09:25:10.580Z,77.57
2023-05-09T09:26:10.621Z,78.19
2023-05-09T09:27:10.740Z,77.80
2023-05-09T09:28:10.679Z,77.71
2023-05-09T09:29:10.709Z,76.84
2023-05-09T09:30:10.753Z,76.87
2023-05-09T09:31:10.775Z,76.10
2023-05-09T09:32:10.863Z,75.23
2023-05-09T09:33:10.871Z,75.46
2023-05-09T09:34:10.870Z,75.65
2023-05-09T09:35:10.902Z,75.07
2023-05-09T09:36:10.937Z,74.59
2023-05-09T09:37:10.964Z,74.69
2023-05-09T09:38:11.015Z,75.46
2023-05-09T09:39:11.057Z,75.52
2023-05-09T09:40:11.084Z,75.43
2023-05-09T09:41:11.112Z,75.04
2023-05-09T09:42:11.130Z,75.04
2023-05-09T09:43:11.260Z,75.78
2023-05-09T09:44:11.201Z,76.32
2023-05-09T09:45:11.228Z,76.42
2023-05-09T09:46:11.312Z,76.70
2023-05-09T09:47:11.292Z,77.28
2023-05-09T09:48:11.380Z,77.25
2023-05-09T09:49:11.352Z,77.63
2023-05-09T09:50:11.389Z,77.34
2023-05-09T09:51:11.502Z,78.11
2023-05-09T09:52:11.452Z,78.59
2023-05-09T09:53:11.484Z,78.50
2023-05-09T09:54:11.518Z,78.50
2023-05-09T09:55:11.552Z,78.64
2023-05-09T09:56:11.592Z,78.25
2023-05-09T09:57:11.609Z,77.76
2023-05-09T09:58:11.648Z,77.76
2023-05-09T09:59:11.768Z,78.06
2023-05-09T10:00:11.740Z,78.06
2023-05-09T10:01:11.791Z,77.15
2023-05-09T10:02:11.770Z,77.83
2023-05-09T10:03:11.913Z,78.41
2023-05-09T10:04:11.845Z,77.92
2023-05-09T10:05:11.867Z,77.92
2023-05-09T10:06:11.901Z,77.63
2023-05-09T10:07:14.803Z,77.34
2023-05-09T10:08:11.964Z,77.83
2023-05-09T10:09:11.994Z,78.50
2023-05-09T10:10:12.110Z,78.31
2023-05-09T10:11:12.057Z,78.54
2023-05-09T10:12:12.148Z,78.15
2023-05-09T10:13:12.294Z,77.38
2023-05-09T10:14:12.150Z,78.06
2023-05-09T10:15:12.297Z,77.96
2023-05-09T10:16:12.312Z,78.29
2023-05-09T10:17:12.362Z,77.13
2023-05-09T10:18:12.442Z,77.03
2023-05-09T10:19:12.305Z,77.03
2023-05-09T10:20:12.502Z,76.84
2023-05-09T10:21:12.383Z,76.93
2023-05-09T10:22:12.399Z,76.06
2023-05-09T10:23:12.451Z,76.26
2023-05-09T10:24:12.466Z,76.84
2023-05-09T10:25:12.508Z,76.35
2023-05-09T10:26:12.529Z,76.55
2023-05-09T10:27:12.564Z,76.93
2023-05-09T10:28:12.605Z,77.03
2023-05-09T10:29:12.629Z,77.90
2023-05-09T10:30:12.678Z,77.42
2023-05-09T10:31:12.870Z,77.03
2023-05-09T10:32:12.720Z,76.93
2023-05-09T10:33:12.789Z,76.90
2023-05-09T10:34:12.794Z,76.61
2023-05-09T10:35:13.174Z,76.61
2023-05-09T10:36:12.874Z,76.70
2023-05-09T10:37:12.882Z,76.42
2023-05-09T10:38:12.913Z,76.90
2023-05-09T10:39:20.098Z,77.28
2023-05-09T10:41:17.487Z,77.28
2023-05-09T10:42:16.999Z,77.34
2023-05-09T10:44:21.074Z,77.44
2023-05-09T10:45:21.077Z,78.02
2023-05-09T10:47:16.223Z,78.56
2023-05-09T10:48:14.105Z,79.37
2023-05-09T10:50:18.197Z,79.27
2023-05-09T10:51:18.162Z,79.17
2023-05-09T10:53:22.708Z,79.12
2023-05-09T10:54:22.239Z,78.92
2023-05-09T10:56:26.353Z,77.19
2023-05-09T10:57:26.326Z,76.76
2023-05-09T10:59:19.861Z,77.73
2023-05-09T11:00:19.486Z,77.05
2023-05-09T11:02:23.680Z,77.73
2023-05-09T11:03:23.639Z,77.73
2023-05-09T11:05:28.077Z,77.63
2023-05-09T11:06:27.612Z,77.25
2023-05-09T11:08:31.664Z,78.02
2023-05-09T11:09:31.752Z,77.44
2023-05-09T11:11:36.236Z,78.02
2023-05-09T11:12:35.723Z,78.02
2023-05-09T11:14:39.796Z,78.11
2023-05-09T11:15:39.790Z,79.66
2023-05-09T11:17:33.319Z,80.57
2023-05-09T11:18:32.812Z,81.44
2023-05-09T11:20:36.873Z,82.89
2023-05-09T11:21:36.841Z,83.75
2023-05-09T11:23:41.369Z,85.01
2023-05-09T11:24:40.910Z,85.84
2023-05-09T11:26:44.987Z,86.13
2023-05-09T11:27:44.967Z,87.00
2023-05-09T11:29:49.532Z,87.92
2023-05-09T11:30:49.038Z,88.36
2023-05-09T11:32:53.273Z,91.02
2023-05-09T11:33:53.084Z,92.56
2023-05-09T11:35:57.613Z,94.82
2023-05-09T11:36:57.139Z,96.08
2023-05-09T11:39:01.226Z,97.28
2023-05-09T11:40:01.197Z,98.54
2023-05-09T11:42:05.714Z,98.87
2023-05-09T11:43:05.238Z,99.26
2023-05-09T11:45:09.300Z,99.16
2023-05-09T11:46:09.345Z,99.93
2023-05-09T11:48:02.928Z,99.64
2023-05-09T11:49:02.271Z,98.77
2023-05-09T11:51:06.342Z,99.26
2023-05-09T11:52:06.329Z,99.99
2023-05-09T11:54:10.853Z,99.99
2023-05-09T11:55:12.499Z,99.99
2023-05-09T11:57:14.431Z,99.69
2023-05-09T11:58:14.434Z,99.99
2023-05-09T12:00:18.963Z,99.02
2023-05-09T12:01:18.467Z,99.99
2023-05-09T12:03:22.836Z,99.21
2023-05-09T12:04:22.557Z,99.30
2023-05-09T12:06:27.052Z,99.74
2023-05-09T12:07:26.585Z,97.81
2023-05-09T12:09:19.749Z,93.85
2023-05-09T12:10:19.749Z,93.85
2023-05-09T12:12:13.258Z,93.32
2023-05-09T12:13:13.198Z,93.90
2023-05-09T12:15:17.342Z,92.50
2023-05-09T12:16:17.037Z,93.27
2023-05-09T12:18:10.502Z,90.09
2023-05-09T12:19:10.067Z,90.13
2023-05-09T12:21:14.090Z,87.71
2023-05-09T12:22:14.006Z,86.07
2023-05-09T12:24:18.551Z,85.88
2023-05-09T12:25:18.167Z,86.21
2023-05-09T12:27:11.249Z,85.21
2023-05-09T12:28:11.238Z,84.91
2023-05-09T12:30:15.827Z,85.40
2023-05-09T12:31:15.346Z,85.21
2023-05-09T12:33:19.372Z,85.49
2023-05-09T12:34:19.465Z,85.40
2023-05-09T12:36:13.926Z,84.91
2023-05-09T12:37:12.546Z,86.07
2023-05-09T12:39:16.627Z,87.33
2023-05-09T12:40:16.604Z,88.39
2023-05-09T12:42:21.153Z,88.97
2023-05-09T12:43:20.662Z,89.17
2023-05-09T12:45:14.367Z,89.07
2023-05-09T12:46:13.852Z,89.55
2023-05-09T12:48:07.396Z,89.55
2023-05-09T12:49:06.822Z,90.03
2023-05-09T12:51:00.131Z,90.81
2023-05-09T12:52:01.648Z,91.29
2023-05-09T12:54:05.006Z,92.93
2023-05-09T12:55:04.030Z,93.80
2023-05-09T12:57:08.098Z,94.57
2023-05-09T12:58:08.102Z,95.06
2023-05-09T13:00:12.785Z,94.24
2023-05-09T13:01:12.177Z,93.85
2023-05-09T13:03:05.456Z,92.21
2023-05-09T13:04:05.340Z,93.04
2023-05-09T13:06:09.960Z,93.80
2023-05-09T13:07:09.387Z,95.54
2023-05-09T13:09:02.592Z,94.43
2023-05-09T13:10:02.551Z,94.92
2023-05-09T13:12:07.097Z,94.96
2023-05-09T13:13:06.636Z,95.84
2023-05-09T13:15:10.934Z,96.61
2023-05-09T13:16:12.154Z,97.57
2023-05-09T13:18:03.690Z,97.72
2023-05-09T13:19:03.643Z,97.72
2023-05-09T13:21:07.724Z,99.35
2023-05-09T13:22:08.142Z,99.84
2023-05-09T13:24:12.256Z,99.59
2023-05-09T13:25:11.752Z,99.88
2023-05-09T13:27:04.925Z,99.99
2023-05-09T13:28:06.436Z,99.99
2023-05-09T13:30:09.491Z,99.99
2023-05-09T13:31:09.008Z,99.99
2023-05-09T13:33:25.271Z,99.99
2023-05-09T13:34:13.046Z,99.99
2023-05-09T13:36:06.555Z,99.99
2023-05-09T13:37:06.213Z,99.99
2023-05-09T13:39:10.290Z,99.99
2023-05-09T13:40:10.250Z,99.99
2023-05-09T13:43:07.881Z,99.99
2023-05-09T13:44:07.411Z,99.99
2023-05-09T13:46:11.495Z,99.99
2023-05-09T13:47:11.448Z,99.99
2023-05-09T13:49:15.998Z,99.99
2023-05-09T13:50:15.818Z,99.99
2023-05-09T13:52:19.569Z,99.99
2023-05-09T13:53:19.571Z,99.99
2023-05-09T13:55:24.499Z,99.99
2023-05-09T13:56:23.807Z,99.99
2023-05-09T13:58:16.772Z,99.99
2023-05-09T13:59:16.772Z,99.99
2023-05-09T14:01:21.346Z,99.99
2023-05-09T14:02:20.868Z,99.99
2023-05-09T14:04:24.876Z,99.99
2023-05-09T14:05:24.875Z,99.99
2023-05-09T14:07:18.404Z,99.99
2023-05-09T14:08:17.869Z,99.99
2023-05-09T14:10:22.111Z,99.99
2023-05-09T14:11:22.019Z,99.99
2023-05-09T14:13:26.491Z,99.99
2023-05-09T14:14:25.961Z,99.99
2023-05-09T14:16:30.075Z,99.99
2023-05-09T14:17:30.033Z,99.99
2023-05-09T14:19:34.550Z,99.99
2023-05-09T14:20:34.064Z,99.99
2023-05-09T14:22:38.145Z,99.99
2023-05-09T14:23:38.136Z,99.99
2023-05-09T14:25:31.657Z,99.99
2023-05-09T14:26:31.411Z,99.99
2023-05-09T14:28:35.391Z,99.99
2023-05-09T14:29:35.360Z,99.99
2023-05-09T14:31:39.926Z,99.99
2023-05-09T14:32:39.415Z,99.99
2023-05-09T14:34:43.576Z,99.88
2023-05-09T14:35:43.465Z,99.79
2023-05-09T14:37:36.998Z,97.57
2023-05-09T14:38:36.437Z,95.93
2023-05-09T14:40:40.518Z,95.74
2023-05-09T14:41:40.588Z,95.36
2023-05-09T14:43:45.022Z,95.16
2023-05-09T14:44:44.537Z,95.45
2023-05-09T14:46:48.664Z,94.96
2023-05-09T14:47:48.618Z,94.78
2023-05-09T14:49:53.139Z,95.88
2023-05-09T14:50:52.657Z,96.08
2023-05-09T14:53:49.806Z,94.73
2023-05-09T14:54:49.831Z,93.18
2023-05-09T14:56:54.466Z,93.91
2023-05-09T14:57:53.855Z,94.39
2023-05-09T15:00:03.150Z,95.93
2023-05-09T15:00:57.926Z,95.93
2023-05-09T15:03:02.510Z,95.84
2023-05-09T15:04:01.982Z,96.41
2023-05-09T15:06:06.037Z,97.96
2023-05-09T15:07:06.074Z,98.58
2023-05-09T15:09:10.615Z,98.97
2023-05-09T15:10:10.078Z,99.74
2023-05-09T15:12:14.285Z,99.99
2023-05-09T15:13:14.169Z,99.99
2023-05-09T15:15:18.665Z,99.99
2023-05-09T15:16:18.219Z,99.99
2023-05-09T15:18:11.311Z,99.99
2023-05-09T15:19:11.157Z,99.99
2023-05-09T15:21:15.691Z,99.99
2023-05-09T15:22:15.220Z,99.99
2023-05-09T15:24:19.269Z,99.99
2023-05-09T15:25:19.264Z,99.99
2023-05-09T15:27:23.887Z,99.99
2023-05-09T15:28:23.329Z,99.99
2023-05-09T15:30:27.390Z,99.99
2023-05-09T15:31:27.425Z,99.99
2023-05-09T15:34:25.003Z,99.99
2023-05-09T15:35:24.525Z,99.99
2023-05-09T15:37:17.508Z,99.99
2023-05-09T15:38:17.500Z,99.99
2023-05-09T15:40:22.027Z,99.99
2023-05-09T15:41:21.558Z,99.99
2023-05-09T15:43:25.815Z,99.99
2023-05-09T15:44:25.608Z,99.99
2023-05-09T15:46:30.288Z,99.99